Terminal Aerodrome Forecast
Issued by NWS Binghamton, NY

Home | Current Version | Previous Version | Text Only | Print | Product List | Glossary On
Versions: 1 2 3 4 5 6 7 8 9 10 11 12 13 14 15 16 17 18
297
FTUS41 KBGM 251724
TAFAVP
TAF
KAVP 251724Z 2518/2618 26010KT P6SM FEW250
     FM260000 VRB03KT P6SM FEW250
     FM261300 23005KT P6SM BKN200=

USA.gov is the U.S. government's official web portal to all federal, state and local government web resources and services.